Time;durP1;ratioP1;P1;durP2;ratioP2;P2;SDS_P1;SDS_P2;PMS_P1;PMS_P2;Temp;Humidity;BMP_temperature;BMP_pressure;BME280_temperature;BME280_humidity;BME280_pressure;Samples;Min_cycle;Max_cycle;Signal;HPM_P1;HPM_P2
2022/03/08 00:21:17;;;;;;;127.75;53.85;;;;;;;;;;6267268;28;20037;-63
2022/03/08 00:24:17;;;;;;;150.10;61.90;;;;;;;;;;6270366;28;20040;-64
2022/03/08 00:27:17;;;;;;;169.70;73.43;;;;;;;;;;6260442;28;20021;-64
2022/03/08 00:30:19;;;;;;;166.50;66.65;;;;;;;;;;6250264;28;20028;-64
2022/03/08 00:33:20;;;;;;;135.98;56.33;;;;;;;;;;6269609;28;20036;-64
2022/03/08 00:36:20;;;;;;;93.17;40.27;;;;;;;;;;6265227;28;20021;-65
2022/03/08 00:39:21;;;;;;;116.93;47.65;;;;;;;;;;6245043;28;20424;-64
2022/03/08 00:42:21;;;;;;;143.63;64.75;;;;;;;;;;6245146;28;20417;-64
2022/03/08 00:45:21;;;;;;;132.63;58.65;;;;;;;;;;6245410;28;20029;-64
2022/03/08 00:48:21;;;;;;;130.73;67.28;;;;;;;;;;6244708;28;20049;-64
2022/03/08 00:51:23;;;;;;;145.23;74.40;;;;;;;;;;6250847;28;20384;-64
2022/03/08 00:54:23;;;;;;;153.85;71.00;;;;;;;;;;6269658;28;20100;-64
2022/03/08 00:57:23;;;;;;;146.98;71.30;;;;;;;;;;6255197;28;20469;-64
2022/03/08 01:00:24;;;;;;;123.80;57.53;;;;;;;;;;6249958;28;20082;-64
2022/03/08 01:03:25;;;;;;;106.03;50.90;;;;;;;;;;6270034;28;20028;-64
2022/03/08 01:06:25;;;;;;;96.68;50.28;;;;;;;;;;6269717;28;20021;-64
2022/03/08 01:09:25;;;;;;;99.97;49.13;;;;;;;;;;6268920;28;20021;-64
2022/03/08 01:12:26;;;;;;;86.25;42.33;;;;;;;;;;6265183;28;20016;-64
2022/03/08 01:15:27;;;;;;;101.80;44.22;;;;;;;;;;6268707;28;20021;-64
2022/03/08 01:18:27;;;;;;;88.47;38.00;;;;;;;;;;6269150;28;20086;-64
2022/03/08 01:21:27;;;;;;;88.97;35.65;;;;;;;;;;6269876;28;20483;-64
2022/03/08 01:24:29;;;;;;;82.70;36.40;;;;;;;;;;6269100;28;20047;-64
2022/03/08 01:27:30;;;;;;;;;;;;;;;;;;6257840;28;20016;-64
2022/03/08 01:30:30;;;;;;;90.18;37.65;;;;;;;;;;6250637;28;19909;-64
2022/03/08 01:33:31;;;;;;;71.35;29.52;;;;;;;;;;6268499;28;20087;-64
2022/03/08 01:36:31;;;;;;;66.20;32.53;;;;;;;;;;6260852;28;20052;-65
2022/03/08 01:39:31;;;;;;;49.85;26.65;;;;;;;;;;6244102;28;20562;-64
2022/03/08 01:42:32;;;;;;;69.95;29.77;;;;;;;;;;6243614;28;20045;-64
2022/03/08 01:45:34;;;;;;;82.40;34.47;;;;;;;;;;6243933;28;20028;-64
2022/03/08 01:48:34;;;;;;;85.22;35.38;;;;;;;;;;6243543;28;20112;-64
2022/03/08 01:51:37;;;;;;;83.75;31.90;;;;;;;;;;6243771;28;20469;-64
2022/03/08 01:54:37;;;;;;;31.33;13.82;;;;;;;;;;6243688;28;20051;-64
2022/03/08 01:57:38;;;;;;;52.28;21.48;;;;;;;;;;6244581;28;20477;-64
2022/03/08 02:00:38;;;;;;;52.25;22.92;;;;;;;;;;6250969;28;20361;-64
2022/03/08 02:03:38;;;;;;;66.70;24.75;;;;;;;;;;6267933;28;20024;-64
2022/03/08 02:06:39;;;;;;;58.40;25.23;;;;;;;;;;6243574;28;20543;-64
2022/03/08 02:09:39;;;;;;;52.50;22.42;;;;;;;;;;6243148;28;20427;-64
2022/03/08 02:12:39;;;;;;;60.25;28.60;;;;;;;;;;6264395;28;20013;-65
2022/03/08 02:15:39;;;;;;;62.20;25.67;;;;;;;;;;6268901;28;20024;-64
2022/03/08 02:18:40;;;;;;;94.97;36.53;;;;;;;;;;6267336;28;20021;-64
2022/03/08 02:21:41;;;;;;;103.65;47.13;;;;;;;;;;6268324;28;20032;-64
2022/03/08 02:24:41;;;;;;;72.15;31.27;;;;;;;;;;6267953;28;20079;-64
2022/03/08 02:27:46;;;;;;;81.68;29.65;;;;;;;;;;6254822;28;20083;-64
2022/03/08 02:30:47;;;;;;;73.03;30.40;;;;;;;;;;6251841;28;20058;-64
2022/03/08 02:33:47;;;;;;;55.55;22.23;;;;;;;;;;6267935;28;20017;-64
2022/03/08 02:37:01;;;;;;;53.60;23.55;;;;;;;;;;6258036;28;20396;-64
2022/03/08 02:40:01;;;;;;;63.70;28.23;;;;;;;;;;6254845;28;20029;-64
2022/03/08 02:43:03;;;;;;;;;;;;;;;;;;6243944;28;20036;-64
2022/03/08 02:46:03;;;;;;;74.10;28.90;;;;;;;;;;6246572;28;19909;-64
2022/03/08 02:49:03;;;;;;;108.18;43.53;;;;;;;;;;6247963;28;20029;-64
2022/03/08 02:52:04;;;;;;;76.13;33.47;;;;;;;;;;6246999;28;20056;-64
2022/03/08 02:55:04;;;;;;;57.47;26.50;;;;;;;;;;6248060;28;20033;-64
2022/03/08 02:58:05;;;;;;;48.03;22.40;;;;;;;;;;6248476;28;20148;-64
2022/03/08 03:01:05;;;;;;;68.00;27.50;;;;;;;;;;6259049;28;20044;-64
2022/03/08 03:04:06;;;;;;;57.15;23.08;;;;;;;;;;6260381;28;20022;-64
2022/03/08 03:07:06;;;;;;;57.05;24.80;;;;;;;;;;6247341;28;20033;-64
2022/03/08 03:10:11;;;;;;;62.10;29.60;;;;;;;;;;6255263;28;20021;-64
2022/03/08 03:13:11;;;;;;;81.40;35.42;;;;;;;;;;6272464;28;20028;-64
2022/03/08 03:16:11;;;;;;;72.85;32.55;;;;;;;;;;6250897;28;20056;-64
2022/03/08 03:19:12;;;;;;;67.55;29.98;;;;;;;;;;6246638;28;20528;-64
2022/03/08 03:22:12;;;;;;;138.18;58.42;;;;;;;;;;6247112;28;20030;-64
2022/03/08 03:25:13;;;;;;;77.85;35.50;;;;;;;;;;6249773;28;20020;-64
2022/03/08 03:28:13;;;;;;;85.93;36.55;;;;;;;;;;6254153;28;20075;-64
2022/03/08 03:31:13;;;;;;;66.40;30.77;;;;;;;;;;6259684;28;20047;-64
2022/03/08 03:34:14;;;;;;;72.43;32.78;;;;;;;;;;6270947;28;20452;-64
2022/03/08 03:37:14;;;;;;;64.17;27.77;;;;;;;;;;6259325;28;20025;-64
2022/03/08 03:40:15;;;;;;;95.85;44.10;;;;;;;;;;6246314;28;20396;-64
2022/03/08 03:43:15;;;;;;;99.68;45.50;;;;;;;;;;6246615;28;20025;-64
2022/03/08 03:46:16;;;;;;;74.55;33.60;;;;;;;;;;6246601;28;20449;-64
2022/03/08 03:49:16;;;;;;;59.53;26.43;;;;;;;;;;6246856;28;20025;-64
2022/03/08 03:52:16;;;;;;;52.95;24.95;;;;;;;;;;6246726;28;20033;-64
2022/03/08 03:55:17;;;;;;;60.33;27.47;;;;;;;;;;6246304;28;20022;-64
2022/03/08 03:58:17;;;;;;;55.70;26.00;;;;;;;;;;6246977;28;20018;-64
2022/03/08 04:01:17;;;;;;;48.83;24.58;;;;;;;;;;6259385;28;20494;-65
2022/03/08 04:04:18;;;;;;;44.95;21.77;;;;;;;;;;6270771;28;20391;-64
2022/03/08 04:07:18;;;;;;;49.38;21.10;;;;;;;;;;6270787;28;20029;-64
2022/03/08 04:10:18;;;;;;;53.67;26.80;;;;;;;;;;6266114;28;20045;-64
2022/03/08 04:13:18;;;;;;;52.30;23.98;;;;;;;;;;6270743;28;20538;-64
2022/03/08 04:16:19;;;;;;;59.10;25.63;;;;;;;;;;6270201;28;20013;-64
2022/03/08 04:19:19;;;;;;;50.00;27.13;;;;;;;;;;6270237;28;20134;-64
2022/03/08 04:22:20;;;;;;;57.67;28.70;;;;;;;;;;6270346;28;20067;-64
2022/03/08 04:25:20;;;;;;;46.47;23.40;;;;;;;;;;6270629;28;20005;-65
2022/03/08 04:28:21;;;;;;;48.65;22.02;;;;;;;;;;6251597;28;20026;-64
2022/03/08 04:31:21;;;;;;;51.78;24.52;;;;;;;;;;6259003;28;20096;-64
2022/03/08 04:34:21;;;;;;;56.47;27.25;;;;;;;;;;6269922;28;20029;-64
2022/03/08 04:37:22;;;;;;;48.15;23.25;;;;;;;;;;6256398;28;20029;-64
2022/03/08 04:40:22;;;;;;;50.95;22.30;;;;;;;;;;6244985;28;20534;-64
2022/03/08 04:43:22;;;;;;;58.72;24.92;;;;;;;;;;6245048;28;20116;-64
2022/03/08 04:46:23;;;;;;;48.83;24.50;;;;;;;;;;6243798;28;20056;-64
2022/03/08 04:49:23;;;;;;;57.40;25.10;;;;;;;;;;6244739;28;20369;-64
2022/03/08 04:52:23;;;;;;;47.25;23.38;;;;;;;;;;6245107;28;20018;-64
2022/03/08 04:55:24;;;;;;;47.28;18.02;;;;;;;;;;6244980;28;20018;-64
2022/03/08 04:58:24;;;;;;;47.47;25.58;;;;;;;;;;6245390;28;20022;-64
2022/03/08 05:01:24;;;;;;;41.10;19.75;;;;;;;;;;6258627;28;20024;-64
2022/03/08 05:04:24;;;;;;;58.20;26.35;;;;;;;;;;6255139;28;20077;-64
2022/03/08 05:07:25;;;;;;;50.67;23.95;;;;;;;;;;6264511;28;20485;-65
2022/03/08 05:10:25;;;;;;;56.95;23.98;;;;;;;;;;6264468;28;20017;-64
2022/03/08 05:13:25;;;;;;;52.33;23.15;;;;;;;;;;6247700;28;20052;-64
2022/03/08 05:16:26;;;;;;;73.93;30.17;;;;;;;;;;6242846;28;20017;-64
2022/03/08 05:19:26;;;;;;;50.75;24.77;;;;;;;;;;6242913;28;20124;-64
2022/03/08 05:22:26;;;;;;;48.95;23.85;;;;;;;;;;6243948;28;20026;-64
2022/03/08 05:25:28;;;;;;;54.65;25.23;;;;;;;;;;6248949;28;20020;-64
2022/03/08 05:28:28;;;;;;;59.55;25.50;;;;;;;;;;6247783;28;20032;-64
2022/03/08 05:31:28;;;;;;;42.63;19.00;;;;;;;;;;6258145;28;20021;-64
2022/03/08 05:34:28;;;;;;;54.03;24.95;;;;;;;;;;6268780;28;20009;-64
2022/03/08 05:37:29;;;;;;;41.17;18.92;;;;;;;;;;6253924;28;20427;-64
2022/03/08 05:40:29;;;;;;;53.58;24.35;;;;;;;;;;6243571;28;20445;-64
2022/03/08 05:43:29;;;;;;;58.72;24.80;;;;;;;;;;6243880;28;20021;-64
2022/03/08 05:46:29;;;;;;;46.03;24.73;;;;;;;;;;6244094;28;20473;-63
2022/03/08 05:49:30;;;;;;;53.05;24.42;;;;;;;;;;6243239;28;20428;-64
2022/03/08 05:52:30;;;;;;;49.85;24.42;;;;;;;;;;6251146;28;20028;-64
2022/03/08 05:55:30;;;;;;;52.25;24.90;;;;;;;;;;6262614;28;20100;-64
2022/03/08 05:58:31;;;;;;;60.00;25.23;;;;;;;;;;6244604;28;20499;-64
2022/03/08 06:01:31;;;;;;;55.85;23.38;;;;;;;;;;6260059;28;20071;-64
2022/03/08 06:04:31;;;;;;;51.33;24.60;;;;;;;;;;6267909;28;20023;-64
2022/03/08 06:07:31;;;;;;;43.33;23.65;;;;;;;;;;6255881;28;20087;-64
2022/03/08 06:10:32;;;;;;;46.75;22.77;;;;;;;;;;6259990;28;20018;-64
2022/03/08 06:13:32;;;;;;;64.93;30.13;;;;;;;;;;6258232;28;20029;-64
2022/03/08 06:16:33;;;;;;;47.25;21.17;;;;;;;;;;6254135;28;20017;-64
2022/03/08 06:19:33;;;;;;;42.72;21.38;;;;;;;;;;6255268;28;20125;-64
2022/03/08 06:22:34;;;;;;;36.08;18.38;;;;;;;;;;6262452;28;20412;-64
2022/03/08 06:25:34;;;;;;;40.63;21.13;;;;;;;;;;6258947;28;20032;-64
2022/03/08 06:28:34;;;;;;;37.70;21.35;;;;;;;;;;6259638;28;20029;-64
2022/03/08 06:31:35;;;;;;;42.65;20.70;;;;;;;;;;6256267;28;20052;-64
2022/03/08 06:34:35;;;;;;;35.53;17.52;;;;;;;;;;6252173;28;20106;-64
2022/03/08 06:37:36;;;;;;;52.08;23.17;;;;;;;;;;6260088;28;20158;-64
2022/03/08 06:40:36;;;;;;;39.05;21.48;;;;;;;;;;6261415;28;20297;-64
2022/03/08 06:43:37;;;;;;;36.30;18.77;;;;;;;;;;6247973;28;20524;-65
2022/03/08 06:46:41;;;;;;;36.63;18.00;;;;;;;;;;6259087;28;20026;-64
2022/03/08 06:49:41;;;;;;;42.13;20.60;;;;;;;;;;6267297;28;20021;-63
2022/03/08 06:52:42;;;;;;;35.25;16.88;;;;;;;;;;6272710;28;20014;-63
2022/03/08 06:55:42;;;;;;;39.35;19.25;;;;;;;;;;6272131;28;20392;-63
2022/03/08 06:58:42;;;;;;;47.95;23.10;;;;;;;;;;6247508;28;20032;-65
2022/03/08 07:01:43;;;;;;;44.95;20.52;;;;;;;;;;6260791;28;20699;-63
2022/03/08 07:04:43;;;;;;;47.00;24.17;;;;;;;;;;6248661;28;20087;-63
2022/03/08 07:07:43;;;;;;;43.03;22.95;;;;;;;;;;6250836;28;20108;-63
2022/03/08 07:10:43;;;;;;;48.53;23.63;;;;;;;;;;6249773;28;20472;-63
2022/03/08 07:13:44;;;;;;;49.90;25.00;;;;;;;;;;6256773;28;20025;-63
2022/03/08 07:16:45;;;;;;;56.58;29.85;;;;;;;;;;6257970;28;20028;-63
2022/03/08 07:19:45;;;;;;;52.28;31.48;;;;;;;;;;6254723;28;20522;-63
2022/03/08 07:22:45;;;;;;;33.83;19.05;;;;;;;;;;6245698;28;20018;-63
2022/03/08 07:25:46;;;;;;;33.80;18.33;;;;;;;;;;6254023;28;20419;-63
2022/03/08 07:28:46;;;;;;;44.70;21.13;;;;;;;;;;6256129;28;20100;-63
2022/03/08 07:31:46;;;;;;;29.90;14.88;;;;;;;;;;6256085;28;20081;-63
2022/03/08 07:34:46;;;;;;;39.80;20.20;;;;;;;;;;6257732;28;20096;-64
2022/03/08 07:37:46;;;;;;;39.53;20.58;;;;;;;;;;6255917;28;20469;-64
2022/03/08 07:40:47;;;;;;;44.70;21.60;;;;;;;;;;6257264;28;20017;-64
2022/03/08 07:43:47;;;;;;;40.03;22.30;;;;;;;;;;6253204;28;20021;-65
2022/03/08 07:46:47;;;;;;;41.33;21.98;;;;;;;;;;6255156;28;20116;-65
2022/03/08 07:49:47;;;;;;;42.28;22.48;;;;;;;;;;6255992;28;20021;-65
2022/03/08 07:52:48;;;;;;;38.85;20.58;;;;;;;;;;6252070;28;20022;-65
2022/03/08 07:55:48;;;;;;;31.52;13.02;;;;;;;;;;6247299;28;20124;-65
2022/03/08 07:58:49;;;;;;;34.35;18.98;;;;;;;;;;6245773;28;20079;-65
2022/03/08 08:01:49;;;;;;;28.60;13.80;;;;;;;;;;6263499;28;20484;-65
2022/03/08 08:04:49;;;;;;;32.28;16.95;;;;;;;;;;6270779;28;20024;-65
2022/03/08 08:07:50;;;;;;;35.97;17.23;;;;;;;;;;6267320;28;20021;-65
2022/03/08 08:10:50;;;;;;;35.65;18.48;;;;;;;;;;6251468;28;20039;-65
2022/03/08 08:13:52;;;;;;;36.85;18.83;;;;;;;;;;6262898;28;20070;-66
2022/03/08 08:16:53;;;;;;;33.13;16.58;;;;;;;;;;6270180;28;20100;-66
2022/03/08 08:19:53;;;;;;;29.25;13.07;;;;;;;;;;6268612;28;20044;-66
2022/03/08 08:22:53;;;;;;;26.92;13.15;;;;;;;;;;6245575;28;20469;-66
2022/03/08 08:25:53;;;;;;;35.30;14.15;;;;;;;;;;6254018;28;20024;-66
2022/03/08 08:28:54;;;;;;;29.13;16.17;;;;;;;;;;6256971;28;20021;-66
2022/03/08 08:31:54;;;;;;;27.90;15.55;;;;;;;;;;6255989;28;20477;-66
2022/03/08 08:34:54;;;;;;;29.35;15.40;;;;;;;;;;6245171;28;20025;-66
2022/03/08 08:37:55;;;;;;;32.22;14.20;;;;;;;;;;6263758;28;20043;-66
2022/03/08 08:40:55;;;;;;;25.67;14.63;;;;;;;;;;6269703;28;20020;-67
2022/03/08 08:43:55;;;;;;;39.25;16.25;;;;;;;;;;6269058;28;20021;-67
2022/03/08 08:46:56;;;;;;;40.00;17.27;;;;;;;;;;6269637;28;20025;-67
2022/03/08 08:49:56;;;;;;;31.85;14.32;;;;;;;;;;6269624;28;20431;-67
2022/03/08 08:52:56;;;;;;;30.52;16.80;;;;;;;;;;6269272;28;20048;-67
2022/03/08 08:55:56;;;;;;;33.95;14.73;;;;;;;;;;6259564;28;20021;-67
2022/03/08 08:58:57;;;;;;;34.95;14.90;;;;;;;;;;6243994;28;20039;-67
2022/03/08 09:01:58;;;;;;;28.30;12.75;;;;;;;;;;6245986;28;20040;-67
2022/03/08 09:04:58;;;;;;;31.58;13.10;;;;;;;;;;6244904;28;20030;-67
2022/03/08 09:07:58;;;;;;;24.58;13.25;;;;;;;;;;6246092;28;20026;-67
2022/03/08 09:10:59;;;;;;;22.38;11.15;;;;;;;;;;6249002;28;20032;-67
2022/03/08 09:13:59;;;;;;;18.88;9.15;;;;;;;;;;6258990;28;20025;-68
2022/03/08 09:17:00;;;;;;;22.45;11.75;;;;;;;;;;6264897;28;20080;-68
2022/03/08 09:20:00;;;;;;;18.63;10.65;;;;;;;;;;6265717;28;20080;-68
2022/03/08 09:23:01;;;;;;;26.13;10.13;;;;;;;;;;6260837;28;20115;-68
2022/03/08 09:26:01;;;;;;;25.23;11.80;;;;;;;;;;6252082;28;20014;-68
2022/03/08 09:29:01;;;;;;;19.48;10.40;;;;;;;;;;6246034;28;20026;-68
2022/03/08 09:32:01;;;;;;;18.55;7.95;;;;;;;;;;6265588;28;20078;-68
2022/03/08 09:35:03;;;;;;;13.27;7.70;;;;;;;;;;6252409;28;20057;-68
2022/03/08 09:38:03;;;;;;;13.18;6.82;;;;;;;;;;6264528;28;20070;-68
2022/03/08 09:41:04;;;;;;;14.35;6.95;;;;;;;;;;6252981;28;20485;-68
2022/03/08 09:44:05;;;;;;;13.35;6.88;;;;;;;;;;6244572;28;20040;-69
2022/03/08 09:47:05;;;;;;;15.27;7.70;;;;;;;;;;6250682;28;20032;-68
2022/03/08 09:50:06;;;;;;;19.00;7.25;;;;;;;;;;6258084;28;20104;-68
2022/03/08 09:53:09;;;;;;;14.00;6.53;;;;;;;;;;6251789;28;20025;-68
2022/03/08 09:56:10;;;;;;;16.55;7.00;;;;;;;;;;6249196;28;20015;-68
2022/03/08 09:59:13;;;;;;;11.65;6.38;;;;;;;;;;6267531;28;20435;-68
2022/03/08 10:02:14;;;;;;;18.17;8.20;;;;;;;;;;6259468;28;20503;-68
2022/03/08 10:05:15;;;;;;;19.40;10.15;;;;;;;;;;6249147;28;20018;-68
2022/03/08 10:08:21;;;;;;;17.60;8.25;;;;;;;;;;6256754;28;20025;-68
2022/03/08 10:11:21;;;;;;;18.75;9.98;;;;;;;;;;6253195;28;20049;-68
2022/03/08 10:14:39;;;;;;;13.98;6.70;;;;;;;;;;6254610;28;20035;-68
2022/03/08 10:17:40;;;;;;;14.77;8.73;;;;;;;;;;6250853;28;20033;-68
2022/03/08 10:20:40;;;;;;;11.35;6.28;;;;;;;;;;6258795;28;20053;-68
2022/03/08 10:23:41;;;;;;;10.00;6.30;;;;;;;;;;6260112;28;20022;-68
2022/03/08 10:26:51;;;;;;;18.83;7.90;;;;;;;;;;6257189;28;20013;-68
2022/03/08 10:29:58;;;;;;;18.13;8.20;;;;;;;;;;6262109;28;20101;-68
2022/03/08 10:32:59;;;;;;;17.73;7.65;;;;;;;;;;6265537;28;20014;-69
2022/03/08 10:35:59;;;;;;;26.73;13.98;;;;;;;;;;6259336;28;20025;-69
2022/03/08 10:39:15;;;;;;;26.83;11.32;;;;;;;;;;6255419;28;20116;-69
2022/03/08 10:42:19;;;;;;;18.48;9.02;;;;;;;;;;6259633;28;20194;-69
2022/03/08 10:45:20;;;;;;;21.92;7.75;;;;;;;;;;6256832;28;20079;-69
2022/03/08 10:48:25;;;;;;;19.05;8.38;;;;;;;;;;6258570;28;20056;-69
2022/03/08 10:51:31;;;;;;;14.90;6.90;;;;;;;;;;6259254;28;20108;-69
2022/03/08 10:54:32;;;;;;;17.48;7.03;;;;;;;;;;6269829;28;20039;-69
2022/03/08 10:57:33;;;;;;;16.23;6.82;;;;;;;;;;6258188;28;20024;-69
2022/03/08 11:00:33;;;;;;;14.55;6.03;;;;;;;;;;6260858;28;20048;-69
2022/03/08 11:03:33;;;;;;;17.80;7.73;;;;;;;;;;6277349;28;20379;-69
2022/03/08 11:06:34;;;;;;;16.42;6.78;;;;;;;;;;6265083;28;20596;-69
2022/03/08 11:09:35;;;;;;;25.60;11.25;;;;;;;;;;6270036;28;20032;-70
2022/03/08 11:12:35;;;;;;;13.98;6.95;;;;;;;;;;6260907;28;20017;-69
2022/03/08 11:15:38;;;;;;;18.98;8.45;;;;;;;;;;6252012;28;20025;-69
2022/03/08 11:18:38;;;;;;;;;;;;;;;;;;6249884;28;20029;-69
2022/03/08 11:21:39;;;;;;;31.17;14.07;;;;;;;;;;6256831;28;19921;-69
2022/03/08 11:24:39;;;;;;;21.35;9.93;;;;;;;;;;6259069;28;20271;-69
2022/03/08 11:27:40;;;;;;;15.63;7.03;;;;;;;;;;6259351;28;20020;-69
2022/03/08 11:30:43;;;;;;;23.40;11.63;;;;;;;;;;6258201;28;20017;-69
2022/03/08 11:33:49;;;;;;;13.52;6.32;;;;;;;;;;6256616;28;20104;-69
2022/03/08 11:36:59;;;;;;;18.58;10.25;;;;;;;;;;6256238;28;20067;-69
2022/03/08 11:40:10;;;;;;;17.23;8.30;;;;;;;;;;6257183;28;20021;-69
2022/03/08 11:43:10;;;;;;;15.75;7.50;;;;;;;;;;6252343;28;20469;-69
2022/03/08 11:46:20;;;;;;;15.52;7.55;;;;;;;;;;6253138;28;20025;-69
2022/03/08 11:49:36;;;;;;;12.43;6.38;;;;;;;;;;6258955;28;20029;-69
2022/03/08 11:52:36;;;;;;;16.17;8.70;;;;;;;;;;6260470;28;20021;-69
2022/03/08 11:55:39;;;;;;;15.40;7.95;;;;;;;;;;6261265;28;20099;-69
2022/03/08 11:58:44;;;;;;;7.47;2.58;;;;;;;;;;6261507;28;20021;-69
2022/03/08 12:01:45;;;;;;;20.58;8.30;;;;;;;;;;6258882;28;20077;-69
2022/03/08 12:04:45;;;;;;;16.77;7.75;;;;;;;;;;6265505;28;20021;-69
2022/03/08 12:07:45;;;;;;;14.27;7.30;;;;;;;;;;6262206;28;20495;-69
2022/03/08 12:10:47;;;;;;;16.77;8.80;;;;;;;;;;6258534;28;20102;-69
2022/03/08 12:13:57;;;;;;;13.65;6.47;;;;;;;;;;6259389;28;20028;-69
2022/03/08 12:17:17;;;;;;;10.00;5.03;;;;;;;;;;6256535;28;20029;-69
2022/03/08 12:20:18;;;;;;;12.40;5.93;;;;;;;;;;6262773;28;20049;-69
2022/03/08 12:23:21;;;;;;;19.55;9.20;;;;;;;;;;6271899;28;20384;-69
2022/03/08 12:26:21;;;;;;;12.60;5.55;;;;;;;;;;6264643;28;20028;-69
2022/03/08 12:29:23;;;;;;;14.93;7.57;;;;;;;;;;6255147;28;20018;-69
2022/03/08 12:32:23;;;;;;;;;;;;;;;;;;6264947;28;20279;-69
2022/03/08 12:35:25;;;;;;;21.80;9.63;;;;;;;;;;6250748;28;20354;-69
2022/03/08 12:38:25;;;;;;;13.63;8.10;;;;;;;;;;6267953;28;20271;-69
2022/03/08 12:41:26;;;;;;;20.30;7.70;;;;;;;;;;6259687;28;20701;-69
2022/03/08 12:44:26;;;;;;;13.90;5.32;;;;;;;;;;6275314;28;20099;-69
2022/03/08 12:47:28;;;;;;;16.60;9.25;;;;;;;;;;6259315;28;20461;-69
2022/03/08 12:50:31;;;;;;;17.15;7.72;;;;;;;;;;6257861;28;20076;-69
2022/03/08 12:53:31;;;;;;;22.05;12.18;;;;;;;;;;6256343;28;20021;-69
2022/03/08 12:56:31;;;;;;;14.80;8.90;;;;;;;;;;6255174;28;20071;-69
2022/03/08 12:59:31;;;;;;;22.90;9.13;;;;;;;;;;6257216;28;20548;-69
2022/03/08 13:02:34;;;;;;;14.20;8.40;;;;;;;;;;6258930;28;20119;-69
2022/03/08 13:05:36;;;;;;;24.10;11.63;;;;;;;;;;6254549;28;20021;-69
2022/03/08 13:08:37;;;;;;;37.65;20.30;;;;;;;;;;6254581;28;20029;-69
2022/03/08 13:11:39;;;;;;;38.83;18.85;;;;;;;;;;6260267;28;20027;-69
2022/03/08 13:14:39;;;;;;;44.38;23.10;;;;;;;;;;6252715;28;20096;-69
2022/03/08 13:17:40;;;;;;;13.48;7.85;;;;;;;;;;6252521;28;20048;-69
2022/03/08 13:20:43;;;;;;;16.08;8.88;;;;;;;;;;6258669;28;20172;-69
2022/03/08 13:23:44;;;;;;;19.67;10.18;;;;;;;;;;6255309;28;20098;-69
2022/03/08 13:26:50;;;;;;;68.85;34.00;;;;;;;;;;6257740;28;20017;-69
2022/03/08 13:29:50;;;;;;;15.50;8.93;;;;;;;;;;6260559;28;20025;-69
2022/03/08 13:33:09;;;;;;;47.08;21.73;;;;;;;;;;6251464;28;20018;-69
2022/03/08 13:36:10;;;;;;;44.90;19.30;;;;;;;;;;6251153;28;20044;-69
2022/03/08 13:39:11;;;;;;;37.20;18.38;;;;;;;;;;6252180;28;20033;-69
2022/03/08 13:42:11;;;;;;;33.58;14.93;;;;;;;;;;6247456;28;20028;-69
2022/03/08 13:45:11;;;;;;;35.70;17.85;;;;;;;;;;6247838;28;20096;-69
2022/03/08 13:48:16;;;;;;;38.53;20.33;;;;;;;;;;6254786;28;20055;-69
2022/03/08 13:51:17;;;;;;;35.88;16.38;;;;;;;;;;6252590;28;20418;-69
2022/03/08 13:54:17;;;;;;;47.03;22.27;;;;;;;;;;6258939;28;20033;-69
2022/03/08 13:57:17;;;;;;;23.95;14.48;;;;;;;;;;6256426;28;20432;-69
2022/03/08 14:00:17;;;;;;;42.97;20.52;;;;;;;;;;6253762;28;20021;-69
2022/03/08 14:03:19;;;;;;;24.45;12.50;;;;;;;;;;6249713;28;20033;-69
2022/03/08 14:06:36;;;;;;;51.13;26.40;;;;;;;;;;6261128;28;20800;-69
2022/03/08 14:09:37;;;;;;;31.63;17.02;;;;;;;;;;6249062;28;20472;-69
2022/03/08 14:12:41;;;;;;;19.45;10.43;;;;;;;;;;6256051;28;20051;-69
2022/03/08 14:16:14;;;;;;;13.75;6.97;;;;;;;;;;6245031;28;20017;-69
2022/03/08 14:19:16;;;;;;;17.92;8.85;;;;;;;;;;6254146;28;20109;-69
2022/03/08 14:22:17;;;;;;;33.78;15.02;;;;;;;;;;6244403;28;20435;-69
2022/03/08 14:25:17;;;;;;;32.53;14.68;;;;;;;;;;6245497;28;20564;-69
2022/03/08 14:28:18;;;;;;;29.35;12.40;;;;;;;;;;6251467;28;20503;-69
2022/03/08 14:31:25;;;;;;;19.48;8.35;;;;;;;;;;6261214;28;20026;-69
2022/03/08 14:34:30;;;;;;;25.98;13.88;;;;;;;;;;6245907;28;20041;-69
2022/03/08 14:37:30;;;;;;;29.65;13.55;;;;;;;;;;6257657;28;20039;-69
2022/03/08 14:40:44;;;;;;;22.27;11.10;;;;;;;;;;6255982;28;20536;-69
2022/03/08 14:43:44;;;;;;;28.50;16.50;;;;;;;;;;6259909;28;20032;-69
2022/03/08 14:46:44;;;;;;;29.20;15.20;;;;;;;;;;6258869;28;20104;-69
2022/03/08 14:49:45;;;;;;;32.67;16.77;;;;;;;;;;6252884;28;20021;-69
2022/03/08 14:52:48;;;;;;;34.22;18.67;;;;;;;;;;6256132;28;20527;-68
2022/03/08 14:55:51;;;;;;;35.35;15.27;;;;;;;;;;6246949;28;20032;-68
2022/03/08 14:58:51;;;;;;;15.32;10.00;;;;;;;;;;6259095;28;20100;-68
2022/03/08 15:01:51;;;;;;;38.67;19.98;;;;;;;;;;6260218;28;20028;-68
2022/03/08 15:04:52;;;;;;;30.40;16.83;;;;;;;;;;6251462;28;20110;-68
2022/03/08 15:07:53;;;;;;;24.30;12.32;;;;;;;;;;6245927;28;20108;-68
2022/03/08 15:10:53;;;;;;;18.45;11.68;;;;;;;;;;6258887;28;20076;-68
2022/03/08 15:13:55;;;;;;;29.02;16.88;;;;;;;;;;6255738;28;20471;-68
2022/03/08 15:16:57;;;;;;;18.95;9.88;;;;;;;;;;6243871;28;20405;-68
2022/03/08 15:19:58;;;;;;;26.33;12.20;;;;;;;;;;6256415;28;20543;-69
2022/03/08 15:22:58;;;;;;;50.38;26.92;;;;;;;;;;6263329;28;20024;-68
2022/03/08 15:25:58;;;;;;;18.80;9.75;;;;;;;;;;6255264;28;20073;-68
2022/03/08 15:28:59;;;;;;;12.52;6.75;;;;;;;;;;6255797;28;20033;-68
2022/03/08 15:32:08;;;;;;;13.32;5.65;;;;;;;;;;6256229;28;20374;-68
2022/03/08 15:35:09;;;;;;;15.10;6.93;;;;;;;;;;6250060;28;20033;-68
2022/03/08 15:38:09;;;;;;;15.02;5.85;;;;;;;;;;6259134;28;20025;-68
2022/03/08 15:41:09;;;;;;;10.73;5.47;;;;;;;;;;6258211;28;20025;-68
2022/03/08 15:44:10;;;;;;;11.88;5.80;;;;;;;;;;6257008;28;20029;-68
2022/03/08 15:47:10;;;;;;;26.60;14.02;;;;;;;;;;6259489;28;20080;-68
2022/03/08 15:50:11;;;;;;;14.50;5.88;;;;;;;;;;6251667;28;20017;-68
2022/03/08 15:53:12;;;;;;;11.13;5.30;;;;;;;;;;6255304;28;21049;-68
2022/03/08 15:56:13;;;;;;;16.83;6.25;;;;;;;;;;6247170;28;20541;-68
2022/03/08 15:59:14;;;;;;;15.27;5.70;;;;;;;;;;6245553;28;20021;-68
2022/03/08 16:02:14;;;;;;;11.80;6.43;;;;;;;;;;6258049;28;20028;-68
2022/03/08 16:05:15;;;;;;;9.27;4.53;;;;;;;;;;6248071;28;20092;-68
2022/03/08 16:08:15;;;;;;;10.55;5.10;;;;;;;;;;6253971;28;20025;-68
2022/03/08 16:11:15;;;;;;;14.90;6.60;;;;;;;;;;6259449;28;20360;-68
2022/03/08 16:14:16;;;;;;;11.77;7.30;;;;;;;;;;6255254;28;20389;-68
2022/03/08 16:17:16;;;;;;;9.60;5.47;;;;;;;;;;6256051;28;20388;-68
2022/03/08 16:20:16;;;;;;;9.05;4.88;;;;;;;;;;6247859;28;20119;-68
2022/03/08 16:23:16;;;;;;;10.40;5.57;;;;;;;;;;6258402;28;20029;-68
2022/03/08 16:26:17;;;;;;;12.93;6.60;;;;;;;;;;6255176;28;20026;-68
2022/03/08 16:29:17;;;;;;;11.50;7.15;;;;;;;;;;6268488;28;20029;-68
2022/03/08 16:32:17;;;;;;;13.07;7.03;;;;;;;;;;6261824;28;20053;-68
2022/03/08 16:35:18;;;;;;;15.05;7.95;;;;;;;;;;6251039;28;20017;-68
2022/03/08 16:38:19;;;;;;;14.07;7.38;;;;;;;;;;6250822;28;20022;-68
2022/03/08 16:41:19;;;;;;;16.13;6.87;;;;;;;;;;6249655;28;20600;-68
2022/03/08 16:44:19;;;;;;;13.68;6.13;;;;;;;;;;6262363;28;20271;-68
2022/03/08 16:47:21;;;;;;;17.42;7.57;;;;;;;;;;6257904;28;20444;-68
2022/03/08 16:50:21;;;;;;;12.27;5.50;;;;;;;;;;6244512;28;20116;-68
2022/03/08 16:53:21;;;;;;;16.42;7.15;;;;;;;;;;6243287;28;20147;-68
2022/03/08 16:56:22;;;;;;;17.33;7.93;;;;;;;;;;6245755;28;20048;-68
2022/03/08 16:59:22;;;;;;;13.57;7.00;;;;;;;;;;6244421;28;20052;-68
2022/03/08 17:02:22;;;;;;;14.32;6.88;;;;;;;;;;6265742;28;20690;-68
2022/03/08 17:05:23;;;;;;;17.27;8.18;;;;;;;;;;6266571;28;20730;-68
2022/03/08 17:08:23;;;;;;;17.30;7.90;;;;;;;;;;6265629;28;20527;-69
2022/03/08 17:11:23;;;;;;;14.95;7.88;;;;;;;;;;6258231;28;20518;-69
2022/03/08 17:14:23;;;;;;;24.02;9.30;;;;;;;;;;6254189;28;20024;-69
2022/03/08 17:17:24;;;;;;;17.48;9.95;;;;;;;;;;6241204;28;20029;-68
2022/03/08 17:20:24;;;;;;;20.33;10.25;;;;;;;;;;6242745;28;20505;-69
2022/03/08 17:23:24;;;;;;;24.95;11.27;;;;;;;;;;6243289;28;20025;-68
2022/03/08 17:26:25;;;;;;;26.02;12.20;;;;;;;;;;6253110;28;20366;-68
2022/03/08 17:29:25;;;;;;;44.22;23.45;;;;;;;;;;6242241;28;20044;-68
2022/03/08 17:32:25;;;;;;;23.83;12.45;;;;;;;;;;6274018;28;20057;-68
2022/03/08 17:35:25;;;;;;;33.03;17.00;;;;;;;;;;6242160;28;20022;-68
2022/03/08 17:38:26;;;;;;;25.42;13.10;;;;;;;;;;6263563;28;20383;-68
2022/03/08 17:41:26;;;;;;;28.85;14.48;;;;;;;;;;6267980;28;20491;-68
2022/03/08 17:44:27;;;;;;;31.88;15.77;;;;;;;;;;6268333;28;20025;-68
2022/03/08 17:47:27;;;;;;;41.22;24.23;;;;;;;;;;6268356;28;20100;-69
2022/03/08 17:50:27;;;;;;;37.13;21.65;;;;;;;;;;6268726;28;20024;-68
2022/03/08 17:53:27;;;;;;;42.78;22.02;;;;;;;;;;6267936;28;20013;-68
2022/03/08 17:56:28;;;;;;;33.85;15.88;;;;;;;;;;6261961;28;20018;-68
2022/03/08 17:59:28;;;;;;;38.17;18.63;;;;;;;;;;6243661;28;20410;-68